Latest Coastal Weather Observations for Broome

IDW60701

Issued at 12:02 am WST Sunday 1 March 2015 (issued every 10 minutes, with the page automatically refreshed every 10 minutes)

About coastal observations | Map of coastal stations | Coastal observations for WA | Marine services | Other Formats
Station Details ID: 003003 Name: BROOME AIRPORT Lat: -17.95 Lon: 122.24 Height: 7.42 m
Data from the previous 72 hours. | See also: Recent months at Broome
Date/Time
WST
Temp

°C
Wind Pressure Rain
since 9am
mm
Weather Cloud Vis
km
Sea
Height
m
Swell
Dir
 
Speed
knots
Gust
knots
hPa Trend Height
m
Period
s
Dir
01/12:00am 25.7 CALM 0 0 1006.8 - 1.0 - - 10 - - - -
 
Date/Time
WST
Temp

°C
Wind Pressure Rain
since 9am
mm
Weather Cloud Vis
km
Sea
Height
m
Swell
Dir
 
Speed
knots
Gust
knots
hPa Trend Height
m
Period
s
Dir
28/11:30pm 25.8 CALM 0 0 1007.3 - 1.0 - - 10 - - - -
28/11:00pm 25.9 CALM 0 0 1007.8 - 1.0 - - 10 - - - -
28/10:30pm 26.0 NNW 3 5 1007.2 - 1.0 - - 10 - - - -
28/10:00pm 25.8 ENE 3 4 1007.6 - 1.0 - - 10 - - - -
28/09:30pm 26.3 NNW 4 5 1007.3 - 1.0 - - 10 - - - -
28/09:00pm 26.2 NNW 3 4 1007.3 F 1.0 Lightning Mostly cloudy 25 - - - -
28/08:30pm 26.3 NW 1 5 1007.5 - 1.0 - - 10 - - - -
28/08:00pm 26.3 N 4 6 1007.3 - 1.0 - - 10 - - - -
28/07:30pm 26.5 WSW 1 5 1007.2 - 1.0 - - 10 - - - -
28/07:00pm 26.4 ESE 5 7 1007.3 - 1.0 - Mostly clear 10 - - - -
28/06:41pm 26.3 SE 8 11 1007.6 - 1.0 - Partly cloudy 10 - - - -
28/06:29pm 25.7 SSE 13 18 1007.7 - 1.0 Thunderstorm Partly cloudy 10 - - - -
28/06:18pm 27.6 ENE 5 9 1007.6 - 1.0 Thunderstorm Mostly clear 10 - - - -
28/06:00pm 29.3 NW 5 7 1006.8 R 0.6 Thunderstorm Mostly cloudy 30 - - - -
28/05:30pm 30.7 W 7 12 1006.4 - 0.0 - Mostly clear 10 - - - -
28/05:00pm 30.7 WNW 7 11 1005.4 - 0.0 - Mostly clear 10 - - - -
28/04:30pm 30.9 WNW 9 11 1005.4 - 0.0 - Mostly clear 10 - - - -
28/04:00pm 31.1 WNW 9 12 1005.1 - 0.0 - Mostly clear 10 - - - -
28/03:30pm 31.4 W 10 13 1004.8 - 0.0 - Mostly clear 10 - - - -
28/03:00pm 32.4 W 10 15 1004.7 F 0.0 Distant precip. Mostly cloudy 35 - - - -
28/02:30pm 32.7 W 10 14 1004.7 - 0.0 - Mostly clear 10 - - - -
28/02:00pm 32.8 W 10 14 1005.1 - 0.0 - Mostly clear 10 - - - -
28/01:30pm 33.1 W 9 16 1005.6 - 0.0 - Partly cloudy 10 - - - -
28/01:00pm 33.3 W 7 11 1005.9 - 0.0 - Partly cloudy 10 - - - -
28/12:30pm 32.5 W 7 9 1006.4 - 0.0 - Partly cloudy 10 - - - -
28/12:00pm 31.8 WSW 6 8 1006.9 F 0.0 Distant precip. Partly cloudy 40 - - - -
28/11:30am 32.3 SSW 6 9 1007.5 - 0.0 - Partly cloudy 10 - - - -
28/11:00am 31.7 S 5 8 1007.9 - 0.0 - Partly cloudy 10 - - - -
28/10:30am 31.6 W 5 8 1008.5 - 0.0 - Partly cloudy 10 - - - -
28/10:00am 30.9 SSW 5 8 1008.6 - 0.0 - Partly cloudy 10 - - - -
28/09:30am 31.4 SE 5 8 1008.6 - 0.0 - Partly cloudy 10 - - - -
28/09:00am 30.8 SE 6 8 1008.6 R 6.0 Fine Partly cloudy 40 - - - -
28/08:30am 30.5 SE 7 10 1008.3 - 6.0 - Partly cloudy 10 - - - -
28/08:00am 30.0 SE 5 7 1008.1 - 6.0 - Mostly clear 10 - - - -
28/07:30am 29.9 ESE 4 5 1008.0 - 6.0 - Mostly clear 10 - - - -
28/07:00am 28.2 ENE 1 3 1007.9 - 6.0 - Partly cloudy 10 - - - -
28/06:30am 27.1 CALM 0 0 1007.4 - 6.0 - Partly cloudy 10 - - - -
28/06:00am 26.3 NNE 1 4 1006.8 F 6.0 Fine Partly cloudy 40 - - - -
28/05:30am 25.9 NNE 3 5 1006.8 - 6.0 - Partly cloudy 10 - - - -
28/05:00am 26.1 CALM 0 0 1006.5 - 6.0 - Partly cloudy 10 - - - -
28/04:30am 26.0 N 2 4 1006.5 - 6.0 - Partly cloudy 10 - - - -
28/04:00am 25.8 NNE 3 4 1006.3 - 6.0 - Partly cloudy 10 - - - -
28/03:30am 25.6 CALM 0 0 1006.1 - 6.0 - Partly cloudy 10 - - - -
28/03:00am 25.8 CALM 0 0 1006.0 - 6.0 - - 10 - - - -
28/02:30am 25.7 CALM 0 0 1006.2 - 5.8 - - 10 - - - -
28/02:00am 25.8 CALM 0 0 1006.5 - 5.8 - - 10 - - - -
28/01:30am 26.2 CALM 0 0 1006.6 - 5.8 - - 10 - - - -
28/01:00am 26.1 N 3 4 1007.2 - 5.8 - - 10 - - - -
28/12:30am 26.3 N 4 6 1007.4 - 5.8 - - 10 - - - -
28/12:00am 26.0 WNW 4 5 1007.6 - 5.8 - - 10 - - - -
 
Date/Time
WST
Temp

°C
Wind Pressure Rain
since 9am
mm
Weather Cloud Vis
km
Sea
Height
m
Swell
Dir
 
Speed
knots
Gust
knots
hPa Trend Height
m
Period
s
Dir
27/11:30pm 25.8 WSW 2 6 1008.2 - 5.8 - - 10 - - - -
27/11:00pm 25.7 CALM 0 3 1008.3 - 5.8 - - 10 - - - -
27/10:30pm 25.6 ENE 4 5 1008.3 - 5.8 - Partly cloudy 10 - - - -
27/10:00pm 25.8 NNE 3 4 1008.2 - 5.8 - - 10 - - - -
27/09:30pm 26.0 CALM 0 0 1007.8 - 5.8 - - 10 - - - -
27/09:00pm 25.9 CALM 0 3 1007.0 F 5.8 Fine Mostly cloudy 40 - - - -
27/08:30pm 25.6 SE 4 7 1006.6 - 5.8 - - 10 - - - -
27/08:00pm 25.5 N 1 5 1005.7 - 5.8 - - 10 - - - -
27/07:30pm 25.3 NNE 5 7 1005.3 - 5.8 - - 10 - - - -
27/07:00pm 25.3 E 2 5 1005.2 - 5.8 - Partly cloudy 10 - - - -
27/06:30pm 25.2 NNE 3 5 1005.3 - 5.8 - Partly cloudy 10 - - - -
27/06:00pm 25.2 N 4 6 1005.5 R 5.0 Rain Mostly cloudy 30 - - - -
27/05:30pm 25.4 NE 5 8 1005.6 - 4.6 Rain Mostly clear 10 - - - -
27/05:00pm 25.8 ENE 9 13 1005.4 - 4.6 Rain Mostly clear 10 - - - -
27/04:30pm 29.7 ESE 5 9 1005.1 - 4.4 Thunder Mostly clear 10 - - - -
27/04:00pm 30.7 SW 2 5 1004.8 - 4.4 - Mostly clear 10 - - - -
27/03:30pm 31.2 W 6 9 1004.3 - 4.4 - Mostly clear 10 - - - -
27/03:00pm 31.8 W 9 12 1004.0 F 4.4 Thunder Mostly cloudy 40 - - - -
27/02:30pm 30.8 W 9 11 1004.0 - 4.4 - Mostly clear 10 - - - -
27/02:00pm 30.3 WNW 4 8 1004.5 - 4.4 - Mostly clear 10 - - - -
27/01:30pm 27.0 S 5 8 1005.2 - 4.4 Showers Mostly clear 10 - - - -
27/01:00pm 26.7 SSE 9 14 1005.9 - 1.6 - Mostly clear 10 - - - -
27/12:44pm 26.3 SE 13 16 1006.3 - 1.2 Showers Mostly clear 1 - - - -
27/12:30pm 28.4 SSE 8 13 1006.6 - 0.0 Showers Mostly clear 10 - - - -
27/12:00pm 31.7 W 8 13 1006.9 R 0.0 Distant precip. Mostly cloudy 40 - - - -
27/11:30am 32.0 WSW 7 10 1007.2 - 0.0 - Partly cloudy 10 - - - -
27/11:00am 32.7 WNW 6 9 1007.3 - 0.0 - Mostly clear 10 - - - -
27/10:30am 31.9 W 6 8 1007.6 - 0.0 - Partly cloudy 10 - - - -
27/10:00am 31.2 CALM 0 0 1007.8 - 0.0 - Mostly clear 10 - - - -
27/09:30am 30.7 NE 3 7 1007.9 - 0.0 - Mostly clear 10 - - - -
27/09:00am 29.5 E 5 6 1007.9 R 3.0 Fine Mostly cloudy 40 - - - -
27/08:30am 28.7 CALM 0 0 1008.0 - 3.0 - Mostly clear 10 - - - -
27/08:00am 28.0 NNE 1 3 1007.8 - 3.0 - Mostly clear 10 - - - -
27/07:30am 27.3 NNE 3 5 1007.4 - 3.0 - Mostly clear 10 - - - -
27/07:00am 26.8 NNE 4 6 1007.0 - 3.0 - Mostly clear 10 - - - -
27/06:30am 26.2 NNE 4 6 1006.5 - 3.0 - Mostly clear 10 - - - -
27/06:00am 25.8 NE 5 6 1006.2 R 3.0 Fine Mostly cloudy 40 - - - -
27/05:30am 26.0 NNE 4 5 1006.0 - 3.0 - Mostly clear 10 - - - -
27/05:00am 25.9 NNE 4 5 1005.7 - 3.0 - - 10 - - - -
27/04:30am 25.9 NNE 5 6 1005.3 - 3.0 - - 10 - - - -
27/04:00am 26.0 ENE 4 4 1005.1 - 3.0 - - 10 - - - -
27/03:30am 25.9 NE 4 5 1004.9 - 3.0 - - 10 - - - -
27/03:00am 26.0 NE 4 5 1004.7 - 3.0 - - 10 - - - -
27/02:30am 26.3 CALM 0 0 1004.9 - 3.0 - Partly cloudy 10 - - - -
27/02:00am 26.4 CALM 0 0 1005.3 - 3.0 - Partly cloudy 10 - - - -
27/01:30am 26.2 NNW 3 5 1005.8 - 3.0 - Partly cloudy 10 - - - -
27/01:00am 26.1 CALM 0 0 1006.0 - 3.0 - - 10 - - - -
27/12:30am 26.1 CALM 0 0 1006.2 - 3.0 - - 10 - - - -
27/12:00am 26.0 E 1 3 1007.0 - 3.0 - - 10 - - - -
 
Date/Time
WST
Temp

°C
Wind Pressure Rain
since 9am
mm
Weather Cloud Vis
km
Sea
Height
m
Swell
Dir
 
Speed
knots
Gust
knots
hPa Trend Height
m
Period
s
Dir
26/11:30pm 25.9 NE 5 7 1007.8 - 3.0 - - 10 - - - -
26/11:00pm 26.1 NNE 5 7 1007.9 - 2.8 - Partly cloudy 10 - - - -
26/10:30pm 26.3 N 4 5 1008.5 - 2.4 - Partly cloudy 10 - - - -
26/10:00pm 26.4 NE 5 7 1008.7 - 2.0 - Partly cloudy 10 - - - -
26/09:30pm 26.7 NE 6 9 1008.4 - 1.6 - Partly cloudy 10 - - - -
26/09:00pm 27.5 ENE 6 9 1008.1 R 1.2 Showers Mostly cloudy 40 - - - -
26/08:30pm 28.2 NE 7 10 1007.3 - 1.0 Showers Mostly clear 10 - - - -
26/08:00pm 29.3 N 5 7 1006.6 - 1.0 - - 10 - - - -
26/07:30pm 29.4 N 5 6 1006.2 - 1.0 - Mostly clear 10 - - - -
26/07:00pm 29.4 N 4 5 1006.0 - 1.0 - Mostly clear 10 - - - -
26/06:30pm 29.6 NW 4 6 1005.1 - 1.0 - Partly cloudy 10 - - - -
26/06:00pm 29.6 NNE 3 4 1004.5 R 1.0 Recent th'storm Mostly cloudy 40 - - - -
26/05:30pm 29.9 W 3 5 1003.6 - 1.0 Showers Mostly clear 10 - - - -
26/05:00pm 31.0 NW 8 12 1004.0 - 0.0 Thunderstorm Mostly clear 10 - - - -
26/04:30pm 31.8 W 10 14 1003.2 - 0.0 Thunder Mostly clear 10 - - - -
26/04:00pm 32.0 WNW 11 14 1003.2 - 0.0 - Mostly clear 10 - - - -
26/03:30pm 31.9 WNW 10 14 1003.7 - 0.0 - Mostly clear 10 - - - -
26/03:00pm 32.9 W 11 13 1003.7 F 0.0 Fine Mostly cloudy 40 - - - -
26/02:30pm 33.8 W 9 11 1004.0 - 0.0 - Mostly clear 10 - - - -
26/02:00pm 33.2 W 9 13 1004.4 - 0.0 - Mostly clear 10 - - - -
26/01:30pm 33.7 WSW 10 13 1005.2 - 0.0 - Mostly clear 10 - - - -
26/01:00pm 33.7 WNW 7 10 1005.7 - 0.0 - Mostly clear 10 - - - -
26/12:30pm 33.4 WSW 7 10 1006.3 - 0.0 - Mostly clear 10 - - - -
26/12:00pm 33.8 W 5 10 1006.6 F 0.0 Fine Mostly cloudy 40 - - - -
26/11:30am 32.3 S 5 7 1007.1 - 0.0 - Mostly clear 10 - - - -
26/11:00am 32.3 S 7 10 1007.4 - 0.0 - Mostly clear 10 - - - -
26/10:30am 32.2 SE 6 9 1007.8 - 0.0 - Partly cloudy 10 - - - -
26/10:00am 31.4 SSE 6 8 1008.3 - 0.0 - Mostly clear 10 - - - -
26/09:30am 31.1 SSE 7 9 1008.4 - 0.0 - Mostly clear 10 - - - -
26/09:00am 31.6 E 5 8 1008.5 R 0.0 Fine Mostly cloudy 40 - - - -
26/08:30am 31.0 ENE 4 7 1008.4 - 0.0 - Mostly clear 10 - - - -
26/08:00am 29.8 NNE 4 6 1008.2 - 0.0 - Mostly clear 10 - - - -
26/07:30am 29.5 NNE 4 6 1008.0 - 0.0 - Mostly clear 10 - - - -
26/07:00am 28.0 NNE 3 4 1007.9 - 0.0 - Mostly clear 10 - - - -
26/06:30am 27.0 N 2 3 1007.5 - 0.0 - Mostly clear 10 - - - -
26/06:00am 26.5 NNE 3 4 1007.0 F 0.0 Fine Partly cloudy 40 - - - -
26/05:30am 26.5 N 4 5 1007.0 - 0.0 - Mostly clear 10 - - - -
26/05:00am 26.6 NNE 3 4 1006.9 - 0.0 - - 10 - - - -
26/04:30am 26.8 N 3 4 1006.5 - 0.0 - - 10 - - - -
26/04:00am 26.9 N 4 4 1006.4 - 0.0 - - 10 - - - -
26/03:30am 26.9 NNE 4 5 1006.4 - 0.0 - - 10 - - - -
26/03:00am 27.1 N 3 4 1006.2 - 0.0 - Mostly clear 10 - - - -
26/02:30am 27.4 N 2 3 1006.5 - 0.0 - Cloudy 10 - - - -
26/02:00am 27.3 NE 3 4 1006.4 - 0.0 - Partly cloudy 10 - - - -
26/01:30am 27.6 N 3 4 1006.7 - 0.0 - Partly cloudy 10 - - - -
26/01:00am 27.7 N 3 4 1006.9 - 0.0 - Partly cloudy 10 - - - -
26/12:30am 27.8 CALM 0 0 1007.1 - 0.0 - Partly cloudy 10 - - - -

Other Formats:

Comma delimited format used in spreadsheet applications
http://www.bom.gov.au/fwo/IDW60701/IDW60701.94203.axf

JavaScript Object Notation format (JSON) in row-major order
http://www.bom.gov.au/fwo/IDW60701/IDW60701.94203.json